Time;durP1;ratioP1;P1;durP2;ratioP2;P2;SDS_P1;SDS_P2;PMS_P1;PMS_P2;Temp;Humidity;BMP_temperature;BMP_pressure;BME280_temperature;BME280_humidity;BME280_pressure;Samples;Min_cycle;Max_cycle;Signal;HPM_P1;HPM_P2
2023/10/25 00:02:03;;;;;;;3.17;2.88;;;8.70;99.90;;;;;;5051885;28;20652;-70
2023/10/25 00:04:31;;;;;;;3.63;3.33;;;8.70;99.90;;;;;;5051596;28;20210;-70
2023/10/25 00:06:59;;;;;;;5.80;3.40;;;8.70;99.90;;;;;;5052524;28;20206;-70
2023/10/25 00:09:28;;;;;;;3.28;2.90;;;8.70;99.90;;;;;;5050234;28;20210;-70
2023/10/25 00:11:56;;;;;;;3.65;2.67;;;8.70;99.90;;;;;;5053859;28;20316;-70
2023/10/25 00:14:24;;;;;;;3.85;2.63;;;8.70;99.90;;;;;;5051977;28;20241;-70
2023/10/25 00:16:52;;;;;;;5.05;2.60;;;8.60;99.90;;;;;;5052218;28;20293;-70
2023/10/25 00:19:20;;;;;;;5.43;2.92;;;8.70;99.90;;;;;;5052319;28;20676;-71
2023/10/25 00:21:48;;;;;;;5.18;2.75;;;8.70;99.90;;;;;;5051393;28;20275;-71
2023/10/25 00:24:16;;;;;;;8.95;3.33;;;8.60;99.90;;;;;;5051579;28;20212;-71
2023/10/25 00:26:45;;;;;;;6.65;4.45;;;8.60;99.90;;;;;;5052630;28;20242;-70
2023/10/25 00:29:13;;;;;;;5.25;4.03;;;8.60;99.90;;;;;;5051844;28;20305;-70
2023/10/25 00:31:41;;;;;;;7.18;4.00;;;8.60;99.90;;;;;;5051716;28;20330;-70
2023/10/25 00:34:09;;;;;;;6.88;4.50;;;8.60;99.90;;;;;;5051058;28;20206;-70
2023/10/25 00:36:37;;;;;;;6.57;5.13;;;8.60;99.90;;;;;;5051928;28;20205;-71
2023/10/25 00:39:05;;;;;;;10.85;4.35;;;8.60;99.90;;;;;;5051457;28;20206;-70
2023/10/25 00:41:33;;;;;;;9.23;5.60;;;8.70;99.90;;;;;;5052237;28;20279;-70
2023/10/25 00:44:02;;;;;;;7.47;6.63;;;8.60;99.90;;;;;;5051346;28;20302;-70
2023/10/25 00:46:30;;;;;;;9.65;6.68;;;8.60;99.90;;;;;;5050818;28;20289;-70
2023/10/25 00:48:59;;;;;;;8.85;5.45;;;8.60;99.90;;;;;;5051324;28;21116;-70
2023/10/25 00:51:28;;;;;;;6.85;5.70;;;8.60;99.90;;;;;;5050898;28;20303;-70
2023/10/25 00:53:56;;;;;;;12.07;5.85;;;8.60;99.90;;;;;;5050608;28;20241;-70
2023/10/25 00:56:25;;;;;;;7.43;6.13;;;8.60;99.90;;;;;;5052898;28;20309;-70
2023/10/25 00:58:54;;;;;;;7.70;5.45;;;8.60;99.90;;;;;;5051394;28;20293;-70
2023/10/25 01:01:24;;;;;;;7.45;5.68;;;8.60;99.90;;;;;;5054528;28;20902;-70
2023/10/25 01:03:52;;;;;;;8.05;5.45;;;8.60;99.90;;;;;;5048727;28;20205;-71
2023/10/25 01:06:21;;;;;;;12.48;5.75;;;8.70;99.90;;;;;;5051299;28;20206;-70
2023/10/25 01:08:48;;;;;;;18.23;6.10;;;8.70;99.90;;;;;;5051309;28;20202;-70
2023/10/25 01:11:16;;;;;;;6.90;5.57;;;8.70;99.90;;;;;;5051654;28;20266;-70
2023/10/25 01:13:44;;;;;;;10.88;5.97;;;8.70;99.90;;;;;;5051005;28;20206;-70
2023/10/25 01:16:12;;;;;;;8.38;6.32;;;8.80;99.90;;;;;;5050525;28;20210;-70
2023/10/25 01:18:41;;;;;;;14.05;7.03;;;8.80;99.90;;;;;;5051341;28;20834;-70
2023/10/25 01:21:09;;;;;;;12.45;7.60;;;8.80;99.90;;;;;;5051086;28;20232;-70
2023/10/25 01:23:39;;;;;;;13.25;7.13;;;8.80;99.90;;;;;;5050788;28;20213;-70
2023/10/25 01:26:06;;;;;;;12.10;6.95;;;8.90;99.90;;;;;;5049558;28;20293;-70
2023/10/25 01:28:34;;;;;;;13.50;7.10;;;8.90;99.90;;;;;;5052102;28;20202;-70
2023/10/25 01:31:02;;;;;;;14.32;7.70;;;8.80;99.90;;;;;;5050193;28;20687;-70
2023/10/25 01:33:30;;;;;;;15.15;7.97;;;8.90;99.90;;;;;;5050718;28;20202;-70
2023/10/25 01:35:58;;;;;;;15.32;8.10;;;8.90;99.90;;;;;;5049918;28;20621;-70
2023/10/25 01:38:26;;;;;;;19.27;9.00;;;8.90;99.90;;;;;;5050847;28;20707;-70
2023/10/25 01:40:55;;;;;;;15.95;9.38;;;9.00;99.90;;;;;;5049557;28;20257;-70
2023/10/25 01:43:24;;;;;;;18.45;10.00;;;9.00;99.90;;;;;;5050539;28;20637;-70
2023/10/25 01:45:52;;;;;;;14.77;9.35;;;9.00;99.90;;;;;;5049974;28;20205;-71
2023/10/25 01:48:20;;;;;;;21.05;9.63;;;9.00;99.90;;;;;;5050767;28;20210;-71
2023/10/25 01:50:48;;;;;;;17.88;9.45;;;9.00;99.90;;;;;;5050424;28;20301;-71
2023/10/25 01:53:16;;;;;;;12.25;7.75;;;9.10;99.90;;;;;;5053855;28;20221;-71
2023/10/25 01:55:44;;;;;;;19.80;9.10;;;9.10;99.90;;;;;;5053964;28;20229;-71
2023/10/25 01:58:13;;;;;;;14.82;8.40;;;9.10;99.90;;;;;;5055731;28;20735;-70
2023/10/25 02:00:41;;;;;;;16.50;10.10;;;9.10;99.90;;;;;;5055518;28;20266;-71
2023/10/25 02:03:09;;;;;;;16.98;9.73;;;9.10;99.90;;;;;;5059281;28;20206;-71
2023/10/25 02:05:37;;;;;;;16.17;10.10;;;9.10;99.90;;;;;;5053323;28;20650;-71
2023/10/25 02:08:05;;;;;;;21.52;10.98;;;9.10;99.90;;;;;;5054739;28;20658;-71
2023/10/25 02:10:34;;;;;;;47.60;16.45;;;9.10;99.90;;;;;;5054776;28;20304;-71
2023/10/25 02:13:01;;;;;;;26.20;15.68;;;9.20;99.90;;;;;;5054574;28;20323;-71
2023/10/25 02:15:30;;;;;;;27.05;16.77;;;9.20;99.90;;;;;;5060523;28;20205;-71
2023/10/25 02:17:58;;;;;;;22.58;15.27;;;9.20;99.90;;;;;;5054347;28;20649;-71
2023/10/25 02:20:27;;;;;;;25.67;16.15;;;9.30;99.90;;;;;;5054518;28;20226;-71
2023/10/25 02:22:55;;;;;;;19.30;13.77;;;9.30;99.90;;;;;;5054493;28;20205;-71
2023/10/25 02:25:23;;;;;;;21.63;14.05;;;9.30;99.90;;;;;;5060250;28;20254;-71
2023/10/25 02:27:51;;;;;;;17.20;13.57;;;9.30;99.90;;;;;;5055885;28;20217;-71
2023/10/25 02:30:19;;;;;;;27.58;14.10;;;9.30;99.90;;;;;;5053822;28;20202;-71
2023/10/25 02:32:48;;;;;;;17.30;13.73;;;9.30;99.90;;;;;;5047855;28;20256;-71
2023/10/25 02:35:18;;;;;;;16.50;13.65;;;9.30;99.90;;;;;;5053313;28;20213;-71
2023/10/25 02:37:45;;;;;;;25.70;13.35;;;9.30;99.90;;;;;;5046163;28;20214;-70
2023/10/25 02:40:13;;;;;;;16.27;12.85;;;9.30;99.90;;;;;;5053761;28;20214;-71
2023/10/25 02:42:44;;;;;;;17.27;12.60;;;9.30;99.90;;;;;;5054963;28;20289;-70
2023/10/25 02:45:12;;;;;;;16.55;12.55;;;9.30;99.90;;;;;;5053170;28;20551;-70
2023/10/25 02:47:40;;;;;;;14.80;12.70;;;9.30;99.90;;;;;;5053385;28;20229;-70
2023/10/25 02:50:10;;;;;;;13.23;11.82;;;9.30;99.90;;;;;;5053911;28;20210;-70
2023/10/25 02:52:38;;;;;;;16.27;11.38;;;9.40;99.90;;;;;;5052814;28;20762;-70
2023/10/25 02:55:06;;;;;;;11.88;10.65;;;9.40;99.90;;;;;;5052482;28;20206;-70
2023/10/25 02:57:34;;;;;;;11.05;9.90;;;9.40;99.90;;;;;;5055533;28;20209;-70
2023/10/25 03:00:02;;;;;;;11.75;10.55;;;9.40;99.90;;;;;;5052366;28;20245;-70
2023/10/25 03:02:30;;;;;;;12.18;10.32;;;9.30;99.90;;;;;;5053751;28;20232;-70
2023/10/25 03:04:59;;;;;;;13.25;11.85;;;9.30;99.90;;;;;;5051533;28;20209;-70
2023/10/25 03:07:28;;;;;;;15.35;11.57;;;9.30;99.90;;;;;;5053298;28;20902;-70
2023/10/25 03:09:56;;;;;;;13.52;11.55;;;9.30;99.90;;;;;;5053219;28;20213;-69
2023/10/25 03:12:24;;;;;;;16.55;12.25;;;9.30;99.90;;;;;;5054654;28;20237;-70
2023/10/25 03:14:52;;;;;;;16.10;13.02;;;9.30;99.90;;;;;;5047221;28;20241;-71
2023/10/25 03:17:20;;;;;;;15.90;12.88;;;9.30;99.90;;;;;;5053354;28;20296;-71
2023/10/25 03:19:48;;;;;;;14.80;11.23;;;9.30;99.90;;;;;;5045135;28;20237;-70
2023/10/25 03:22:16;;;;;;;24.77;12.95;;;9.30;99.90;;;;;;5053210;28;20396;-70
2023/10/25 03:24:45;;;;;;;33.05;12.60;;;9.30;99.90;;;;;;5052724;28;20624;-70
2023/10/25 03:27:13;;;;;;;14.82;12.32;;;9.30;99.90;;;;;;5052920;28;20651;-70
2023/10/25 03:29:41;;;;;;;44.03;14.23;;;9.20;99.90;;;;;;5052812;28;20300;-70
2023/10/25 03:32:09;;;;;;;14.07;11.80;;;9.20;99.90;;;;;;5053039;28;20321;-70
2023/10/25 03:34:37;;;;;;;17.08;13.15;;;9.20;99.90;;;;;;5051902;28;20297;-71
2023/10/25 03:37:05;;;;;;;15.60;12.77;;;9.20;99.90;;;;;;5052842;28;20206;-71
2023/10/25 03:39:33;;;;;;;18.80;13.52;;;9.30;99.90;;;;;;5054836;28;20589;-71
2023/10/25 03:42:03;;;;;;;17.45;12.90;;;9.30;99.90;;;;;;5052549;28;20668;-71
2023/10/25 03:44:31;;;;;;;18.27;13.57;;;9.30;99.90;;;;;;5054272;28;20206;-71
2023/10/25 03:46:59;;;;;;;21.98;14.13;;;9.30;99.90;;;;;;5052891;28;20205;-71
2023/10/25 03:49:27;;;;;;;30.75;15.57;;;9.30;99.90;;;;;;5052533;28;20284;-71
2023/10/25 03:51:55;;;;;;;25.85;15.82;;;9.30;99.90;;;;;;5052837;28;20261;-71
2023/10/25 03:54:23;;;;;;;44.60;15.02;;;9.40;99.90;;;;;;5051421;28;20582;-71
2023/10/25 03:56:51;;;;;;;27.23;15.70;;;9.40;99.90;;;;;;5051960;28;20268;-71
2023/10/25 03:59:20;;;;;;;28.25;15.15;;;9.40;99.90;;;;;;5050862;28;20230;-71
2023/10/25 04:01:48;;;;;;;31.80;16.23;;;9.40;99.90;;;;;;5050797;28;20480;-70
2023/10/25 04:04:16;;;;;;;23.48;15.60;;;9.40;99.90;;;;;;5053997;28;20290;-70
2023/10/25 04:06:44;;;;;;;37.95;16.15;;;9.40;99.90;;;;;;5052318;28;20206;-70
2023/10/25 04:09:11;;;;;;;30.48;16.48;;;9.40;99.90;;;;;;5052375;28;20202;-70
2023/10/25 04:11:39;;;;;;;46.38;15.25;;;9.40;99.90;;;;;;5052269;28;20280;-70
2023/10/25 04:14:07;;;;;;;22.55;15.45;;;9.40;99.90;;;;;;5057222;28;20253;-69
2023/10/25 04:16:36;;;;;;;24.02;16.40;;;9.30;99.90;;;;;;5071455;23;20271;-55
2023/10/25 04:19:04;;;;;;;25.60;16.45;;;9.30;99.90;;;;;;5071189;28;20212;-56
2023/10/25 04:21:32;;;;;;;23.70;16.00;;;9.30;99.90;;;;;;5086840;28;20217;-57
2023/10/25 04:24:02;;;;;;;21.77;14.90;;;9.40;99.90;;;;;;5084234;28;20307;-55
2023/10/25 04:26:29;;;;;;;24.10;16.58;;;9.40;99.90;;;;;;5089023;28;20287;-55
2023/10/25 04:28:57;;;;;;;44.45;16.75;;;9.40;99.90;;;;;;5087177;28;20204;-55
2023/10/25 04:31:25;;;;;;;23.98;16.17;;;9.50;99.90;;;;;;5089132;28;20281;-55
2023/10/25 04:33:55;;;;;;;25.42;15.63;;;9.50;99.90;;;;;;5086149;28;20227;-57
2023/10/25 04:36:23;;;;;;;30.52;16.08;;;9.50;99.90;;;;;;5082280;28;20205;-57
2023/10/25 04:38:51;;;;;;;26.38;17.45;;;9.50;99.90;;;;;;5083475;28;20303;-57
2023/10/25 04:41:19;;;;;;;24.17;16.90;;;9.50;99.90;;;;;;5088569;28;20681;-55
2023/10/25 04:43:47;;;;;;;26.15;17.17;;;9.50;99.90;;;;;;5081404;28;20737;-57
2023/10/25 04:46:15;;;;;;;27.17;17.63;;;9.50;99.90;;;;;;5084205;28;20304;-55
2023/10/25 04:48:43;;;;;;;26.55;17.90;;;9.50;99.90;;;;;;5090578;28;20208;-57
2023/10/25 04:51:14;;;;;;;26.50;17.65;;;9.50;99.90;;;;;;5091524;28;20232;-55
2023/10/25 04:53:43;;;;;;;28.00;18.63;;;9.60;99.90;;;;;;5081995;28;20217;-56
2023/10/25 04:56:11;;;;;;;42.10;18.98;;;9.60;99.90;;;;;;5090541;28;20205;-56
2023/10/25 04:58:38;;;;;;;29.05;17.35;;;9.60;99.90;;;;;;5086087;28;20229;-55
2023/10/25 05:01:13;;;;;;;31.45;20.23;;;9.60;99.90;;;;;;5079767;28;20250;-54
2023/10/25 05:03:43;;;;;;;43.10;19.92;;;9.60;99.90;;;;;;5088914;28;20684;-55
2023/10/25 05:06:11;;;;;;;29.45;18.70;;;9.60;99.90;;;;;;5091556;28;20212;-56
2023/10/25 05:08:41;;;;;;;30.60;19.50;;;9.60;99.90;;;;;;5091243;28;20216;-55
2023/10/25 05:11:09;;;;;;;34.58;19.88;;;9.60;99.90;;;;;;5085820;28;20316;-54
2023/10/25 05:13:38;;;;;;;55.72;21.55;;;9.60;99.90;;;;;;5086613;28;20221;-56
2023/10/25 05:16:06;;;;;;;31.48;19.23;;;9.60;99.90;;;;;;5084109;28;20701;-54
2023/10/25 05:18:35;;;;;;;60.55;21.67;;;9.60;99.90;;;;;;5086629;28;20209;-54
2023/10/25 05:21:04;;;;;;;35.75;21.45;;;9.60;99.90;;;;;;5084108;28;20298;-55
2023/10/25 05:23:32;;;;;;;49.95;21.40;;;9.60;99.90;;;;;;5080020;28;20289;-55
2023/10/25 05:26:02;;;;;;;42.63;19.55;;;9.60;99.90;;;;;;5090918;28;20299;-56
2023/10/25 05:28:31;;;;;;;34.33;19.63;;;9.60;99.90;;;;;;5079296;28;20201;-55
2023/10/25 05:31:01;;;;;;;32.97;21.73;;;9.60;99.90;;;;;;5082113;28;20224;-55
2023/10/25 05:33:31;;;;;;;33.35;21.05;;;9.70;99.90;;;;;;5072403;28;20222;-57
2023/10/25 05:36:00;;;;;;;31.88;20.42;;;9.70;99.90;;;;;;5080944;28;20212;-57
2023/10/25 05:38:29;;;;;;;42.20;20.83;;;9.70;99.90;;;;;;5078754;28;20205;-54
2023/10/25 05:40:57;;;;;;;35.55;19.88;;;9.70;99.90;;;;;;5089971;28;20235;-55
2023/10/25 05:43:28;;;;;;;31.70;19.67;;;9.70;99.90;;;;;;5089534;28;20287;-55
2023/10/25 05:45:57;;;;;;;31.15;20.60;;;9.70;99.90;;;;;;5082646;28;20233;-55
2023/10/25 05:48:25;;;;;;;31.27;19.90;;;9.70;99.90;;;;;;5091284;28;20216;-56
2023/10/25 05:50:53;;;;;;;29.98;20.42;;;9.70;99.90;;;;;;5091011;28;20278;-55
2023/10/25 05:53:22;;;;;;;33.38;20.70;;;9.70;99.90;;;;;;5090926;28;20243;-56
2023/10/25 05:55:50;;;;;;;33.85;20.52;;;9.70;99.90;;;;;;5090754;28;20232;-56
2023/10/25 05:58:19;;;;;;;33.72;19.80;;;9.80;99.90;;;;;;5091400;28;20341;-55
2023/10/25 06:00:51;;;;;;;32.85;20.70;;;9.80;99.90;;;;;;5090628;28;20311;-57
2023/10/25 06:03:20;;;;;;;33.25;19.27;;;9.80;99.90;;;;;;5086373;28;20283;-56
2023/10/25 06:05:52;;;;;;;30.75;20.75;;;9.80;99.90;;;;;;5104688;22;20321;-73
2023/10/25 06:08:20;;;;;;;31.08;20.05;;;9.80;99.90;;;;;;5051296;28;20202;-73
2023/10/25 06:10:50;;;;;;;30.25;19.33;;;9.80;99.90;;;;;;5050939;28;20629;-73
2023/10/25 06:13:19;;;;;;;33.33;19.55;;;9.90;99.90;;;;;;5048852;28;20221;-74
2023/10/25 06:15:48;;;;;;;38.55;19.25;;;9.90;99.90;;;;;;5048136;28;20234;-73
2023/10/25 06:18:17;;;;;;;32.78;20.52;;;9.90;99.90;;;;;;5031360;28;20206;-74
2023/10/25 06:20:45;;;;;;;31.08;20.02;;;10.00;99.90;;;;;;5030951;28;20207;-74
2023/10/25 06:23:12;;;;;;;40.28;20.80;;;10.00;99.90;;;;;;5031004;28;20285;-74
2023/10/25 06:25:40;;;;;;;29.38;19.20;;;10.00;99.90;;;;;;5029899;28;20292;-74
2023/10/25 06:28:08;;;;;;;31.38;19.90;;;10.00;99.90;;;;;;5031277;28;20213;-74
2023/10/25 06:30:36;;;;;;;31.92;20.15;;;10.00;99.90;;;;;;5030933;28;20397;-74
2023/10/25 06:33:05;;;;;;;32.13;20.30;;;10.00;99.90;;;;;;5030797;28;20732;-74
2023/10/25 06:35:33;;;;;;;30.50;19.27;;;10.00;99.90;;;;;;5030223;28;20238;-74
2023/10/25 06:38:01;;;;;;;27.23;19.00;;;10.00;99.90;;;;;;5031070;28;20207;-74
2023/10/25 06:40:30;;;;;;;30.63;18.27;;;10.00;99.90;;;;;;5033995;28;20246;-74
2023/10/25 06:42:58;;;;;;;27.98;17.95;;;10.00;99.90;;;;;;5034504;28;20293;-74
2023/10/25 06:45:27;;;;;;;28.55;17.20;;;10.00;99.90;;;;;;5033902;28;20227;-73
2023/10/25 06:47:56;;;;;;;27.48;17.75;;;10.00;99.90;;;;;;5034011;28;20294;-74
2023/10/25 06:50:27;;;;;;;23.00;16.10;;;10.00;99.90;;;;;;5033556;28;20628;-74
2023/10/25 06:52:55;;;;;;;26.67;16.80;;;10.00;99.90;;;;;;5032559;28;20289;-74
2023/10/25 06:55:24;;;;;;;30.65;16.33;;;10.10;99.90;;;;;;5033598;28;20321;-74
2023/10/25 06:57:52;;;;;;;22.98;15.70;;;10.10;99.90;;;;;;5034211;28;20349;-74
2023/10/25 07:00:22;;;;;;;25.63;16.02;;;10.10;99.90;;;;;;5033862;28;20250;-74
2023/10/25 07:02:52;;;;;;;27.58;16.38;;;10.10;99.90;;;;;;5033963;28;20305;-74
2023/10/25 07:05:20;;;;;;;22.75;15.50;;;10.10;99.90;;;;;;5033329;28;20227;-75
2023/10/25 07:07:50;;;;;;;21.92;15.20;;;10.10;99.90;;;;;;5033808;28;20249;-74
2023/10/25 07:10:19;;;;;;;25.65;16.48;;;10.20;99.90;;;;;;5033748;28;20206;-74
2023/10/25 07:12:47;;;;;;;24.45;15.85;;;10.20;99.90;;;;;;5033823;28;20687;-74
2023/10/25 07:15:15;;;;;;;22.80;16.38;;;10.20;99.90;;;;;;5033483;28;20245;-74
2023/10/25 07:17:44;;;;;;;27.25;16.73;;;10.20;99.90;;;;;;5033832;28;20206;-74
2023/10/25 07:20:12;;;;;;;26.70;16.10;;;10.30;99.90;;;;;;5033571;28;20210;-74
2023/10/25 07:22:41;;;;;;;21.42;14.60;;;10.30;99.90;;;;;;5031799;28;20749;-74
2023/10/25 07:25:10;;;;;;;24.50;14.13;;;10.30;99.90;;;;;;5028188;28;20273;-74
2023/10/25 07:27:38;;;;;;;21.98;14.77;;;10.40;99.90;;;;;;5041771;28;20717;-74
2023/10/25 07:30:07;;;;;;;26.38;13.98;;;10.40;99.90;;;;;;5033160;28;20664;-74
2023/10/25 07:32:35;;;;;;;22.02;14.25;;;10.40;99.90;;;;;;5033388;28;20689;-74
2023/10/25 07:35:04;;;;;;;18.33;13.35;;;10.40;99.90;;;;;;5032759;28;20230;-74
2023/10/25 07:37:32;;;;;;;19.50;14.00;;;10.40;99.90;;;;;;5033317;28;20218;-74
2023/10/25 07:40:00;;;;;;;17.08;13.55;;;10.40;99.90;;;;;;5033265;28;20242;-74
2023/10/25 07:42:29;;;;;;;15.73;12.52;;;10.50;99.90;;;;;;5033226;28;20668;-74
2023/10/25 07:44:57;;;;;;;16.42;11.85;;;10.50;99.90;;;;;;5032340;28;20317;-74
2023/10/25 07:47:25;;;;;;;16.52;12.25;;;10.60;99.90;;;;;;5033505;28;20240;-74
2023/10/25 07:49:53;;;;;;;14.48;11.48;;;10.60;99.90;;;;;;5032236;28;20199;-74
2023/10/25 07:52:23;;;;;;;13.38;10.35;;;10.70;99.90;;;;;;5033147;28;20285;-74
2023/10/25 07:54:50;;;;;;;12.48;10.77;;;10.80;99.90;;;;;;5032591;28;20222;-74
2023/10/25 07:57:19;;;;;;;13.95;10.50;;;10.80;99.90;;;;;;5032850;28;20202;-74
2023/10/25 08:00:10;;;;;;;11.23;10.02;;;10.80;99.90;;;;;;5033020;28;20210;-74
2023/10/25 08:02:38;;;;;;;10.80;9.68;;;10.90;99.90;;;;;;5032840;28;20298;-74
2023/10/25 08:05:06;;;;;;;13.90;8.75;;;10.90;99.90;;;;;;5032522;28;20229;-74
2023/10/25 08:07:37;;;;;;;9.10;6.70;;;10.90;99.90;;;;;;5033150;28;20211;-74
2023/10/25 08:10:06;;;;;;;7.55;6.18;;;10.80;99.90;;;;;;5032476;28;20203;-74
2023/10/25 08:12:35;;;;;;;13.73;7.50;;;10.80;99.90;;;;;;5032676;28;20723;-74
2023/10/25 08:15:05;;;;;;;8.38;6.63;;;10.80;99.90;;;;;;5032411;28;20230;-74
2023/10/25 08:17:34;;;;;;;8.15;6.05;;;10.80;99.90;;;;;;5030890;28;20245;-74
2023/10/25 08:20:04;;;;;;;7.97;6.15;;;10.90;99.90;;;;;;5032322;28;20634;-73
2023/10/25 08:22:33;;;;;;;6.15;5.55;;;10.90;99.90;;;;;;5032122;28;20293;-74
2023/10/25 08:25:01;;;;;;;10.77;5.93;;;10.90;99.90;;;;;;5032298;28;20265;-74
2023/10/25 08:27:29;;;;;;;7.65;5.82;;;11.00;99.90;;;;;;5032520;28;20226;-74
2023/10/25 08:29:57;;;;;;;8.20;6.10;;;11.00;99.90;;;;;;5032217;28;20260;-74
2023/10/25 08:32:26;;;;;;;6.25;5.65;;;11.00;99.90;;;;;;5031603;28;20206;-74
2023/10/25 08:34:55;;;;;;;8.80;6.07;;;11.00;99.90;;;;;;5031165;28;20230;-74
2023/10/25 08:37:23;;;;;;;7.20;5.40;;;11.00;99.90;;;;;;5032020;28;20660;-74
2023/10/25 08:39:50;;;;;;;7.70;5.78;;;10.90;99.90;;;;;;5031897;28;20209;-74
2023/10/25 08:42:18;;;;;;;9.68;6.00;;;11.00;99.90;;;;;;5031925;28;20369;-74
2023/10/25 08:44:46;;;;;;;7.97;5.80;;;11.10;99.90;;;;;;5031600;28;20294;-74
2023/10/25 08:47:14;;;;;;;7.57;5.97;;;11.20;99.90;;;;;;5031818;28;20207;-74
2023/10/25 08:49:42;;;;;;;9.07;5.75;;;11.30;99.90;;;;;;5031396;28;20202;-74
2023/10/25 08:52:11;;;;;;;10.52;6.05;;;11.30;99.90;;;;;;5030456;28;20205;-74
2023/10/25 08:54:39;;;;;;;6.82;5.32;;;11.40;99.90;;;;;;5031875;28;20315;-74
2023/10/25 08:57:08;;;;;;;6.55;5.95;;;11.40;99.90;;;;;;5023793;28;20704;-74
2023/10/25 08:59:43;;;;;;;5.90;5.40;;;11.40;99.90;;;;;;5031990;28;20234;-74
2023/10/25 09:02:11;;;;;;;6.40;5.80;;;11.40;99.90;;;;;;5023812;28;20210;-74
2023/10/25 09:04:39;;;;;;;9.90;6.10;;;11.40;99.90;;;;;;5031806;28;20230;-74
2023/10/25 09:07:29;;;;;;;6.72;6.05;;;11.50;99.90;;;;;;5025125;28;20214;-74
2023/10/25 09:09:57;;;;;;;8.27;6.20;;;11.50;99.90;;;;;;5038012;28;20762;-74
2023/10/25 09:12:25;;;;;;;8.48;6.28;;;11.60;99.90;;;;;;5031478;28;20206;-74
2023/10/25 09:14:53;;;;;;;8.30;5.95;;;11.60;99.90;;;;;;5031300;28;20230;-74
2023/10/25 09:17:21;;;;;;;7.47;6.60;;;11.70;99.90;;;;;;5031971;28;20202;-74
2023/10/25 09:19:49;;;;;;;9.15;6.20;;;11.70;99.90;;;;;;5031324;28;20559;-74
2023/10/25 09:22:21;;;;;;;7.72;6.25;;;11.70;99.90;;;;;;5031549;28;20281;-74
2023/10/25 09:24:51;;;;;;;6.80;6.15;;;11.70;99.90;;;;;;5031092;28;20238;-74
2023/10/25 09:27:19;;;;;;;10.90;6.22;;;11.70;99.90;;;;;;5031420;28;20202;-74
2023/10/25 09:29:49;;;;;;;7.65;6.55;;;11.70;99.90;;;;;;5031510;28;20211;-74
2023/10/25 09:32:17;;;;;;;7.63;6.22;;;11.70;99.90;;;;;;5031557;28;20202;-74
2023/10/25 09:34:46;;;;;;;8.32;6.80;;;11.80;99.90;;;;;;5031080;28;20289;-74
2023/10/25 09:37:14;;;;;;;7.13;6.43;;;11.80;99.90;;;;;;5031302;28;20280;-74
2023/10/25 09:39:42;;;;;;;7.20;6.60;;;11.90;99.90;;;;;;5031466;28;20284;-74
2023/10/25 09:42:12;;;;;;;6.93;5.97;;;11.90;99.90;;;;;;5031543;28;20202;-74
2023/10/25 09:44:45;;;;;;;7.95;6.72;;;11.90;99.90;;;;;;5030998;28;20202;-74
2023/10/25 09:47:15;;;;;;;6.75;6.15;;;11.90;99.90;;;;;;5031333;28;20199;-74
2023/10/25 09:49:43;;;;;;;7.22;5.82;;;11.80;99.90;;;;;;5031364;28;20210;-74
2023/10/25 09:52:13;;;;;;;7.13;6.38;;;11.80;99.90;;;;;;5031071;28;20675;-74
2023/10/25 09:54:47;;;;;;;7.65;6.00;;;11.80;99.90;;;;;;5031187;28;20257;-73
2023/10/25 09:57:17;;;;;;;6.68;6.07;;;11.80;99.90;;;;;;5030591;28;20226;-74
2023/10/25 09:59:45;;;;;;;10.45;6.18;;;11.80;99.90;;;;;;5028561;28;20249;-74
2023/10/25 10:02:16;;;;;;;8.63;6.32;;;11.70;99.90;;;;;;5028139;28;20206;-73
2023/10/25 10:04:48;;;;;;;8.43;6.43;;;11.70;99.90;;;;;;5030215;28;20211;-74
2023/10/25 10:07:23;;;;;;;6.10;5.50;;;11.70;99.90;;;;;;5037439;28;20296;-74
2023/10/25 10:09:53;;;;;;;6.35;5.75;;;11.70;99.90;;;;;;5021399;28;20285;-74
2023/10/25 10:12:22;;;;;;;7.78;6.20;;;11.70;99.90;;;;;;5039389;28;20629;-74
2023/10/25 10:17:28;;;;;;;7.50;6.15;;;11.60;99.90;;;;;;4993413;28;20223;-56
2023/10/25 10:19:57;;;;;;;7.70;6.03;;;11.60;99.90;;;;;;4995426;28;20204;-55
2023/10/25 10:22:26;;;;;;;6.32;5.70;;;11.60;99.90;;;;;;4995505;28;20204;-61
2023/10/25 10:24:56;;;;;;;10.95;6.38;;;11.60;99.90;;;;;;4995263;28;20303;-57
2023/10/25 10:27:27;;;;;;;7.15;6.45;;;11.60;99.90;;;;;;4995300;28;20224;-58
2023/10/25 10:29:55;;;;;;;7.43;5.82;;;11.60;99.90;;;;;;4995514;28;20247;-57
2023/10/25 10:32:24;;;;;;;6.88;5.78;;;11.60;99.90;;;;;;4995496;28;20208;-60
2023/10/25 10:34:56;;;;;;;9.93;6.40;;;11.60;99.90;;;;;;4995218;28;20208;-57
2023/10/25 10:37:24;;;;;;;7.82;6.35;;;11.60;99.90;;;;;;4995235;28;20609;-56
2023/10/25 10:40:14;;;;;;;7.63;5.30;;;11.60;99.90;;;;;;4994875;28;20295;-59
2023/10/25 10:42:43;;;;;;;7.00;5.97;;;11.70;99.90;;;;;;4991062;28;20296;-59
2023/10/25 10:45:12;;;;;;;8.90;5.60;;;11.60;99.90;;;;;;4994746;28;20346;-55
2023/10/25 10:47:42;;;;;;;11.00;6.30;;;11.70;99.90;;;;;;4994986;28;20267;-59
2023/10/25 10:50:11;;;;;;;7.57;6.40;;;11.70;99.90;;;;;;4994390;28;20200;-59
2023/10/25 10:52:40;;;;;;;7.65;6.30;;;11.70;99.90;;;;;;4994650;28;20246;-60
2023/10/25 10:55:08;;;;;;;13.15;6.25;;;11.70;99.90;;;;;;4994460;28;20212;-60
2023/10/25 10:57:37;;;;;;;6.88;6.15;;;11.70;99.90;;;;;;4994787;28;20263;-57
2023/10/25 11:00:09;;;;;;;7.72;5.90;;;11.70;99.90;;;;;;4993417;28;20208;-57
2023/10/25 11:02:37;;;;;;;6.30;4.30;;;11.70;99.90;;;;;;4994645;28;20231;-57
2023/10/25 11:05:06;;;;;;;8.88;6.75;;;11.80;99.90;;;;;;4994155;28;20247;-57
2023/10/25 11:07:34;;;;;;;5.25;4.85;;;12.00;99.90;;;;;;4994669;28;20668;-58
2023/10/25 11:10:03;;;;;;;4.97;4.47;;;12.20;99.90;;;;;;4994240;28;20244;-58
2023/10/25 11:12:31;;;;;;;4.10;3.28;;;12.60;99.90;;;;;;4994267;28;20242;-56
2023/10/25 11:15:01;;;;;;;7.38;5.43;;;13.10;99.90;;;;;;4993935;28;20298;-61
2023/10/25 11:17:31;;;;;;;3.65;3.35;;;13.30;99.90;;;;;;4994021;28;20235;-53
2023/10/25 11:19:59;;;;;;;3.38;3.17;;;13.30;99.90;;;;;;4993801;28;20226;-54
2023/10/25 11:22:30;;;;;;;3.83;3.58;;;13.20;99.90;;;;;;4992281;28;20200;-53
2023/10/25 11:24:58;;;;;;;6.75;4.40;;;13.20;99.90;;;;;;4993120;28;20357;-57
2023/10/25 11:27:30;;;;;;;5.00;3.60;;;13.20;99.90;;;;;;4994259;28;20243;-57
2023/10/25 11:29:58;;;;;;;5.50;4.00;;;13.00;99.90;;;;;;4993994;28;20239;-53
2023/10/25 11:32:28;;;;;;;6.13;3.85;;;13.00;99.90;;;;;;4994358;28;20287;-53
2023/10/25 11:34:59;;;;;;;8.90;4.35;;;13.00;99.90;;;;;;4994257;28;20299;-54
2023/10/25 11:37:27;;;;;;;3.88;3.63;;;13.00;99.90;;;;;;4993996;28;20677;-56
2023/10/25 11:39:56;;;;;;;4.10;3.80;;;13.00;99.90;;;;;;4994168;28;20296;-53
2023/10/25 11:42:24;;;;;;;3.33;2.88;;;13.00;99.90;;;;;;4993650;28;20244;-53
2023/10/25 11:44:52;;;;;;;5.85;3.08;;;13.00;99.90;;;;;;4993962;28;20201;-52
2023/10/25 11:47:24;;;;;;;6.97;3.35;;;12.90;99.90;;;;;;4992819;28;20224;-52
2023/10/25 11:49:52;;;;;;;2.85;2.53;;;13.00;99.90;;;;;;4993793;28;20243;-53
2023/10/25 11:52:25;;;;;;;2.47;2.25;;;13.00;99.90;;;;;;4993672;28;20636;-53
2023/10/25 11:54:56;;;;;;;2.20;1.92;;;13.10;99.90;;;;;;4993542;28;20215;-55
2023/10/25 11:57:24;;;;;;;4.07;2.33;;;13.20;99.90;;;;;;4993493;28;20322;-53
2023/10/25 11:59:52;;;;;;;1.75;1.60;;;13.20;99.90;;;;;;4993438;28;20260;-54
2023/10/25 12:02:21;;;;;;;3.38;1.65;;;13.20;99.90;;;;;;4993400;28;20713;-53
2023/10/25 12:04:49;;;;;;;2.47;1.60;;;13.30;99.90;;;;;;4993489;28;20278;-53
2023/10/25 12:07:17;;;;;;;2.88;1.50;;;13.30;99.90;;;;;;4992921;28;20644;-53
2023/10/25 12:09:46;;;;;;;1.35;1.30;;;13.40;99.90;;;;;;4993207;28;20290;-53
2023/10/25 12:12:14;;;;;;;1.88;1.13;;;13.40;99.90;;;;;;4993105;28;20247;-52
2023/10/25 12:14:42;;;;;;;3.15;1.20;;;13.40;99.90;;;;;;5024312;22;20260;-61
2023/10/25 12:17:10;;;;;;;1.33;1.27;;;13.40;99.90;;;;;;5052103;28;20226;-59
2023/10/25 12:19:39;;;;;;;1.85;1.50;;;13.20;99.90;;;;;;5052505;28;20198;-60
2023/10/25 12:22:08;;;;;;;2.15;1.40;;;13.10;99.90;;;;;;5052036;28;20208;-61
2023/10/25 12:24:36;;;;;;;2.25;1.60;;;12.90;99.90;;;;;;5051964;28;20312;-60
2023/10/25 12:27:06;;;;;;;1.65;1.58;;;12.80;99.90;;;;;;5051578;28;20208;-54
2023/10/25 12:29:34;;;;;;;1.60;1.50;;;12.70;99.90;;;;;;5038430;28;20206;-56
2023/10/25 12:32:03;;;;;;;3.35;1.80;;;12.60;99.90;;;;;;5031274;28;20580;-54
2023/10/25 12:34:31;;;;;;;2.03;1.92;;;12.60;99.90;;;;;;5031714;28;20325;-54
2023/10/25 12:36:59;;;;;;;3.33;2.25;;;12.60;99.90;;;;;;5031570;28;20206;-56
2023/10/25 12:39:27;;;;;;;3.90;1.55;;;12.50;99.90;;;;;;5032306;28;20234;-54
2023/10/25 12:41:55;;;;;;;2.92;1.90;;;12.50;99.90;;;;;;5031742;28;20956;-54
2023/10/25 12:44:24;;;;;;;3.50;1.20;;;12.50;99.90;;;;;;5031892;28;20285;-56
2023/10/25 12:46:52;;;;;;;3.17;1.58;;;12.50;99.90;;;;;;5031119;28;20214;-58
2023/10/25 12:49:20;;;;;;;1.38;1.20;;;12.50;99.90;;;;;;5031919;28;20272;-58
2023/10/25 12:51:48;;;;;;;1.70;1.40;;;12.40;99.90;;;;;;5031520;28;20228;-57